createdAt,value
2023-01-15T00:00:07.441Z,5.60
2023-01-15T00:02:34.562Z,5.37
2023-01-15T00:05:03.498Z,5.33
2023-01-15T00:07:32.023Z,5.72
2023-01-15T00:09:59.159Z,4.93
2023-01-15T00:12:26.273Z,5.20
2023-01-15T00:14:53.395Z,5.65
2023-01-15T00:17:20.503Z,5.57
2023-01-15T00:19:47.613Z,4.57
2023-01-15T00:22:14.732Z,4.33
2023-01-15T00:25:00.305Z,4.87
2023-01-15T00:27:41.047Z,4.68
2023-01-15T00:30:11.906Z,5.00
2023-01-15T00:32:39.967Z,5.00
2023-01-15T00:35:08.405Z,4.83
2023-01-15T00:37:35.472Z,4.13
2023-01-15T00:40:04.216Z,4.07
2023-01-15T00:42:31.403Z,5.33
2023-01-15T00:44:58.545Z,5.47
2023-01-15T00:47:25.967Z,4.87
2023-01-15T00:49:53.525Z,4.27
2023-01-15T00:52:20.686Z,4.77
2023-01-15T00:54:48.451Z,4.65
2023-01-15T00:57:15.595Z,5.20
2023-01-15T00:59:43.069Z,5.33
2023-01-15T01:02:10.328Z,5.25
2023-01-15T01:04:37.469Z,4.63
2023-01-15T01:07:06.297Z,4.97
2023-01-15T01:09:33.782Z,4.43
2023-01-15T01:12:01.024Z,5.33
2023-01-15T01:14:28.716Z,4.95
2023-01-15T01:16:56.997Z,5.07
2023-01-15T01:19:25.273Z,5.20
2023-01-15T01:21:53.097Z,4.80
2023-01-15T01:24:23.263Z,4.03
2023-01-15T01:26:53.389Z,5.30
2023-01-15T01:29:23.813Z,5.23
2023-01-15T01:31:51.461Z,5.17
2023-01-15T01:34:19.312Z,5.60
2023-01-15T01:36:46.713Z,4.05
2023-01-15T01:39:18.964Z,4.18
2023-01-15T01:41:47.431Z,4.90
2023-01-15T01:44:33.692Z,4.97
2023-01-15T01:47:05.448Z,5.17
2023-01-15T01:49:35.248Z,6.57
2023-01-15T01:52:07.303Z,4.63
2023-01-15T01:54:37.524Z,5.47
2023-01-15T01:57:06.645Z,5.90
2023-01-15T01:59:34.299Z,4.70
2023-01-15T02:02:01.613Z,4.37
2023-01-15T02:04:30.792Z,5.90
2023-01-15T02:07:01.270Z,4.93
2023-01-15T02:09:28.551Z,5.63
2023-01-15T02:12:01.175Z,1.83
2023-01-15T02:14:36.990Z,4.93
2023-01-15T02:17:49.296Z,4.85
2023-01-15T02:20:29.065Z,4.63
2023-01-15T02:23:12.106Z,5.55
2023-01-15T02:25:52.411Z,4.45
2023-01-15T02:28:25.800Z,5.35
2023-01-15T02:31:19.644Z,5.45
2023-01-15T02:33:59.768Z,4.93
2023-01-15T02:36:32.185Z,5.50
2023-01-15T02:39:06.123Z,4.88
2023-01-15T02:41:45.498Z,4.80
2023-01-15T02:44:16.791Z,5.33
2023-01-15T02:46:45.535Z,4.85
2023-01-15T02:49:17.387Z,4.97
2023-01-15T02:52:06.596Z,4.70
2023-01-15T02:55:14.149Z,4.78
2023-01-15T02:57:47.099Z,5.18
2023-01-15T03:00:19.407Z,5.25
2023-01-15T03:03:01.209Z,4.90
2023-01-15T03:05:34.030Z,5.80
2023-01-15T03:08:04.945Z,5.05
2023-01-15T03:11:01.644Z,6.13
2023-01-15T03:14:05.209Z,4.68
2023-01-15T03:16:46.244Z,4.18
2023-01-15T03:19:24.214Z,4.72
2023-01-15T03:22:07.697Z,5.00
2023-01-15T03:24:41.426Z,5.18
2023-01-15T03:27:09.489Z,5.28
2023-01-15T03:29:42.586Z,5.07
2023-01-15T03:32:09.822Z,5.25
2023-01-15T03:34:42.699Z,5.67
2023-01-15T03:37:13.650Z,4.95
2023-01-15T03:39:43.019Z,6.00
2023-01-15T03:42:37.700Z,5.55
2023-01-15T03:45:18.498Z,5.40
2023-01-15T03:47:55.007Z,4.57
2023-01-15T03:51:12.292Z,6.13
2023-01-15T03:53:46.139Z,5.55
2023-01-15T03:56:35.831Z,5.47
2023-01-15T03:59:12.913Z,5.68
2023-01-15T04:01:54.036Z,5.85
2023-01-15T04:04:25.492Z,4.65
2023-01-15T04:06:54.645Z,5.55
2023-01-15T04:09:22.870Z,5.88
2023-01-15T04:11:52.774Z,5.03
2023-01-15T04:14:19.993Z,5.55
2023-01-15T04:19:18.049Z,5.30
2023-01-15T04:21:55.885Z,5.43
2023-01-15T04:24:23.272Z,6.00
2023-01-15T04:26:50.557Z,5.57
2023-01-15T04:29:17.738Z,5.43
2023-01-15T04:31:44.872Z,6.00
2023-01-15T04:34:11.970Z,5.03
2023-01-15T04:36:39.138Z,6.30
2023-01-15T04:39:06.465Z,5.20
2023-01-15T04:41:52.182Z,6.05
2023-01-15T04:44:19.272Z,5.40
2023-01-15T04:46:47.935Z,5.97
2023-01-15T04:49:17.738Z,5.68
2023-01-15T04:51:45.837Z,6.50
2023-01-15T04:54:14.992Z,5.78
2023-01-15T04:56:44.987Z,5.65
2023-01-15T04:59:12.252Z,4.55
2023-01-15T05:01:39.800Z,5.20
2023-01-15T05:04:07.781Z,4.68
2023-01-15T05:06:35.150Z,5.68
2023-01-15T05:09:03.850Z,6.10
2023-01-15T05:11:31.270Z,6.07
2023-01-15T05:13:58.426Z,5.50
2023-01-15T05:16:28.657Z,6.60
2023-01-15T05:18:59.749Z,6.25
2023-01-15T05:23:57.606Z,5.38
2023-01-15T05:26:25.442Z,6.35
2023-01-15T05:28:57.550Z,6.22
2023-01-15T05:31:25.702Z,5.90
2023-01-15T05:33:54.580Z,5.70
2023-01-15T05:36:27.127Z,6.47
2023-01-15T05:38:55.443Z,5.63
2023-01-15T05:41:41.607Z,6.32
2023-01-15T05:44:11.367Z,5.97
2023-01-15T05:46:40.337Z,7.07
2023-01-15T05:49:10.413Z,7.10
2023-01-15T05:51:39.250Z,7.27
2023-01-15T05:54:08.522Z,6.32
2023-01-15T05:56:37.017Z,5.65
2023-01-15T05:59:05.470Z,6.27
2023-01-15T06:01:32.896Z,6.70
2023-01-15T06:04:01.535Z,7.68
2023-01-15T06:06:29.474Z,6.70
2023-01-15T06:08:56.627Z,6.97
2023-01-15T06:11:23.791Z,6.87
2023-01-15T06:13:51.104Z,5.55
2023-01-15T06:16:19.068Z,6.38
2023-01-15T06:18:46.440Z,6.97
2023-01-15T06:21:15.129Z,6.72
2023-01-15T06:23:42.907Z,5.63
2023-01-15T06:26:16.323Z,5.47
2023-01-15T06:28:44.626Z,8.25
2023-01-15T06:31:15.058Z,7.03
2023-01-15T06:33:42.626Z,6.68
2023-01-15T06:36:12.464Z,7.18
2023-01-15T06:38:40.589Z,5.33
2023-01-15T06:41:30.708Z,7.53
2023-01-15T06:44:16.301Z,5.82
2023-01-15T06:47:04.911Z,6.40
2023-01-15T06:49:33.848Z,5.65
2023-01-15T06:52:01.066Z,6.77
2023-01-15T06:54:28.923Z,6.22
2023-01-15T06:56:56.051Z,7.38
2023-01-15T06:59:23.245Z,8.27
2023-01-15T07:01:50.496Z,7.30
2023-01-15T07:04:17.647Z,6.57
2023-01-15T07:06:44.732Z,8.90
2023-01-15T07:09:12.593Z,6.93
2023-01-15T07:11:49.658Z,6.88
2023-01-15T07:14:23.012Z,4.93
2023-01-15T07:16:51.025Z,6.77
2023-01-15T07:19:19.267Z,6.85
2023-01-15T07:21:46.856Z,7.85
2023-01-15T07:24:14.541Z,7.53
2023-01-15T07:26:42.622Z,7.18
2023-01-15T07:29:10.195Z,6.47
2023-01-15T07:31:38.228Z,7.63
2023-01-15T07:34:05.501Z,7.00
2023-01-15T07:36:32.797Z,6.72
2023-01-15T07:39:00.105Z,7.10
2023-01-15T07:41:46.015Z,7.68
2023-01-15T07:44:35.189Z,7.10
2023-01-15T07:47:21.167Z,7.13
2023-01-15T07:49:49.841Z,4.65
2023-01-15T07:52:22.742Z,7.75
2023-01-15T07:54:50.728Z,7.30
2023-01-15T07:57:22.524Z,7.70
2023-01-15T07:59:50.599Z,8.13
2023-01-15T08:02:18.263Z,7.47
2023-01-15T08:04:45.616Z,7.32
2023-01-15T08:07:13.167Z,7.35
2023-01-15T08:09:40.345Z,5.43
2023-01-15T08:12:26.439Z,6.70
2023-01-15T08:15:12.068Z,7.88
2023-01-15T08:17:41.921Z,7.85
2023-01-15T08:20:18.964Z,7.57
2023-01-15T08:22:46.598Z,7.35
2023-01-15T08:25:17.256Z,7.13
2023-01-15T08:27:44.393Z,4.85
2023-01-15T08:30:18.003Z,7.25
2023-01-15T08:32:45.328Z,6.57
2023-01-15T08:35:13.322Z,6.93
2023-01-15T08:37:41.876Z,6.47
2023-01-15T08:40:10.947Z,8.35
2023-01-15T08:42:38.667Z,7.20
2023-01-15T08:45:06.424Z,8.00
2023-01-15T08:47:33.653Z,5.50
2023-01-15T08:50:00.821Z,8.02
2023-01-15T08:52:27.971Z,7.53
2023-01-15T08:54:55.146Z,7.68
2023-01-15T08:57:22.280Z,8.88
2023-01-15T08:59:49.412Z,7.47
2023-01-15T09:02:17.836Z,7.07
2023-01-15T09:04:44.984Z,7.38
2023-01-15T09:07:13.282Z,4.20
2023-01-15T09:09:40.523Z,6.70
2023-01-15T09:12:07.770Z,7.70
2023-01-15T09:14:59.059Z,7.45
2023-01-15T09:17:22.043Z,7.45
2023-01-15T09:19:49.136Z,7.32
2023-01-15T09:22:16.269Z,6.03
2023-01-15T09:24:43.358Z,7.13
2023-01-15T09:27:13.697Z,6.60
2023-01-15T09:29:40.823Z,7.05
2023-01-15T09:32:10.011Z,7.30
2023-01-15T09:34:37.381Z,7.55
2023-01-15T09:37:04.808Z,8.18
2023-01-15T09:39:32.074Z,6.50
2023-01-15T09:42:27.103Z,6.80
2023-01-15T09:45:02.953Z,6.88
2023-01-15T09:47:37.178Z,6.70
2023-01-15T09:50:10.440Z,4.80
2023-01-15T09:52:43.476Z,6.47
2023-01-15T09:55:32.129Z,6.85
2023-01-15T09:58:04.638Z,6.70
2023-01-15T10:00:46.132Z,6.90
2023-01-15T10:03:15.912Z,5.20
2023-01-15T10:06:06.754Z,5.95
2023-01-15T10:08:40.894Z,5.60
2023-01-15T10:11:20.174Z,6.10
2023-01-15T10:13:51.975Z,6.07
2023-01-15T10:16:24.995Z,6.25
2023-01-15T10:18:53.436Z,6.15
2023-01-15T10:21:26.330Z,5.82
2023-01-15T10:24:10.563Z,6.50
2023-01-15T10:26:43.133Z,5.68
2023-01-15T10:29:35.008Z,6.05
2023-01-15T10:32:13.875Z,6.35
2023-01-15T10:34:59.917Z,6.43
2023-01-15T10:37:45.842Z,5.00
2023-01-15T10:40:25.966Z,6.65
2023-01-15T10:43:21.123Z,7.03
2023-01-15T10:45:53.992Z,6.05
2023-01-15T10:48:57.184Z,6.20
2023-01-15T10:51:31.466Z,5.35
2023-01-15T10:54:07.238Z,5.55
2023-01-15T10:56:42.132Z,4.13
2023-01-15T10:59:49.423Z,5.18
2023-01-15T11:02:49.842Z,5.20
2023-01-15T11:05:21.550Z,4.93
2023-01-15T11:08:15.291Z,5.18
2023-01-15T11:10:41.398Z,5.28
2023-01-15T11:13:30.064Z,6.40
2023-01-15T11:16:16.071Z,5.13
2023-01-15T11:19:03.758Z,4.68
2023-01-15T11:21:31.914Z,5.60
2023-01-15T11:24:00.386Z,5.85
2023-01-15T11:26:30.605Z,5.38
2023-01-15T11:29:00.589Z,4.93
2023-01-15T11:31:38.542Z,5.20
2023-01-15T11:34:16.806Z,5.68
2023-01-15T11:36:43.955Z,6.18
2023-01-15T11:39:28.502Z,7.30
2023-01-15T11:42:22.183Z,5.95
2023-01-15T11:45:16.434Z,5.32
2023-01-15T11:48:12.687Z,4.68
2023-01-15T11:51:15.090Z,4.97
2023-01-15T11:53:48.380Z,4.30
2023-01-15T11:56:18.127Z,5.22
2023-01-15T11:58:51.206Z,5.20
2023-01-15T12:01:33.242Z,4.38
2023-01-15T12:04:08.175Z,5.50
2023-01-15T12:06:40.474Z,5.00
2023-01-15T12:09:25.553Z,4.85
2023-01-15T12:12:07.788Z,4.68
2023-01-15T12:14:56.277Z,4.82
2023-01-15T12:17:52.473Z,4.55
2023-01-15T12:20:41.790Z,5.30
2023-01-15T12:23:38.692Z,5.28
2023-01-15T12:26:25.209Z,5.30
2023-01-15T12:29:13.192Z,5.28
2023-01-15T12:31:43.925Z,4.65
2023-01-15T12:34:24.505Z,4.13
2023-01-15T12:37:13.386Z,4.70
2023-01-15T12:39:49.515Z,4.93
2023-01-15T12:42:54.820Z,4.70
2023-01-15T12:45:34.753Z,5.85
2023-01-15T12:48:13.847Z,5.63
2023-01-15T12:51:13.547Z,5.25
2023-01-15T12:53:52.157Z,6.63
2023-01-15T12:56:27.991Z,4.88
2023-01-15T12:58:55.070Z,4.20
2023-01-15T13:01:31.957Z,4.50
2023-01-15T13:04:15.182Z,5.50
2023-01-15T13:06:47.469Z,5.53
2023-01-15T13:09:29.965Z,5.65
2023-01-15T13:11:57.594Z,5.85
2023-01-15T13:14:24.847Z,5.22
2023-01-15T13:17:18.275Z,5.18
2023-01-15T13:20:12.430Z,4.95
2023-01-15T13:22:56.433Z,6.68
2023-01-15T13:25:54.600Z,4.60
2023-01-15T13:28:21.741Z,4.38
2023-01-15T13:31:00.374Z,5.13
2023-01-15T13:33:34.525Z,4.60
2023-01-15T13:36:11.154Z,4.90
2023-01-15T13:38:43.908Z,4.82
2023-01-15T13:41:38.667Z,5.90
2023-01-15T13:44:06.012Z,4.75
2023-01-15T13:46:33.217Z,5.78
2023-01-15T13:49:00.517Z,6.00
2023-01-15T13:51:32.197Z,4.90
2023-01-15T13:54:01.152Z,5.57
2023-01-15T13:56:36.143Z,6.13
2023-01-15T13:59:06.053Z,5.70
2023-01-15T14:01:35.664Z,5.53
2023-01-15T14:04:02.794Z,5.45
2023-01-15T14:06:41.933Z,7.00
2023-01-15T14:09:20.923Z,5.63
2023-01-15T14:12:11.962Z,5.70
2023-01-15T14:14:51.081Z,5.45
2023-01-15T14:17:34.764Z,4.65
2023-01-15T14:20:17.041Z,5.35
2023-01-15T14:23:01.699Z,5.40
2023-01-15T14:25:52.526Z,5.68
2023-01-15T14:28:38.176Z,5.35
2023-01-15T14:31:21.973Z,6.03
2023-01-15T14:34:33.522Z,6.00
2023-01-15T14:37:04.622Z,5.63
2023-01-15T14:39:42.336Z,5.68
2023-01-15T14:42:41.015Z,4.90
2023-01-15T14:45:18.227Z,5.45
2023-01-15T14:47:48.163Z,4.70
2023-01-15T14:50:33.842Z,5.30
2023-01-15T14:53:15.936Z,4.38
2023-01-15T14:56:14.238Z,4.13
2023-01-15T14:58:59.800Z,4.95
2023-01-15T15:01:50.556Z,4.30
2023-01-15T15:04:43.571Z,5.03
2023-01-15T15:07:17.260Z,4.43
2023-01-15T15:09:53.422Z,3.97
2023-01-15T15:12:41.073Z,5.20
2023-01-15T15:15:26.237Z,4.15
2023-01-15T15:18:22.465Z,4.07
2023-01-15T15:21:05.707Z,3.03
2023-01-15T15:23:56.518Z,3.83
2023-01-15T15:26:28.773Z,4.45
2023-01-15T15:29:11.668Z,4.15
2023-01-15T15:31:49.422Z,4.63
2023-01-15T15:34:40.357Z,5.25
2023-01-15T15:37:28.817Z,4.18
2023-01-15T15:40:03.473Z,5.47
2023-01-15T15:43:21.442Z,4.95
2023-01-15T15:46:11.812Z,5.50
2023-01-15T15:48:42.918Z,6.00
2023-01-15T15:54:22.036Z,5.10
2023-01-15T15:57:12.680Z,5.43
2023-01-15T15:59:47.989Z,5.90
2023-01-15T16:02:19.891Z,5.03
2023-01-15T16:04:51.395Z,6.78
2023-01-15T16:07:26.486Z,5.55
2023-01-15T16:09:58.678Z,5.55
2023-01-15T16:12:30.257Z,5.65
2023-01-15T16:16:16.066Z,6.20
2023-01-15T16:18:45.695Z,6.22
2023-01-15T16:21:31.825Z,7.07
2023-01-15T16:24:07.245Z,7.57
2023-01-15T16:26:44.202Z,7.33
2023-01-15T16:29:21.730Z,4.37
2023-01-15T16:31:49.151Z,6.20
2023-01-15T16:34:22.519Z,6.10
2023-01-15T16:36:49.939Z,4.60
2023-01-15T16:39:39.681Z,6.17
2023-01-15T16:42:26.034Z,5.90
2023-01-15T16:44:57.197Z,5.63
2023-01-15T16:47:27.344Z,6.20
2023-01-15T16:50:16.870Z,6.07
2023-01-15T16:52:53.041Z,5.53
2023-01-15T16:55:44.779Z,6.57
2023-01-15T16:58:20.166Z,6.03
2023-01-15T17:00:53.322Z,5.57
2023-01-15T17:03:23.990Z,6.60
2023-01-15T17:06:01.851Z,7.35
2023-01-15T17:08:41.028Z,6.47
2023-01-15T17:11:20.065Z,6.37
2023-01-15T17:13:47.197Z,6.97
2023-01-15T17:16:23.499Z,7.73
2023-01-15T17:18:51.522Z,6.43
2023-01-15T17:21:27.658Z,5.57
2023-01-15T17:23:55.996Z,6.37
2023-01-15T17:26:25.390Z,7.73
2023-01-15T17:28:52.586Z,6.07
2023-01-15T17:31:24.804Z,4.23
2023-01-15T17:33:52.661Z,6.27
2023-01-15T17:36:20.682Z,6.30
2023-01-15T17:38:47.883Z,6.37
2023-01-15T17:41:17.224Z,6.17
2023-01-15T17:43:44.696Z,5.60
2023-01-15T17:46:12.453Z,5.00
2023-01-15T17:48:40.509Z,5.97
2023-01-15T17:51:12.593Z,6.20
2023-01-15T17:53:40.271Z,7.17
2023-01-15T17:56:27.014Z,5.90
2023-01-15T17:59:13.192Z,6.40
2023-01-15T18:02:02.298Z,5.90
2023-01-15T18:04:52.960Z,6.37
2023-01-15T18:07:23.522Z,6.95
2023-01-15T18:09:53.164Z,6.10
2023-01-15T18:12:20.429Z,6.03
2023-01-15T18:14:47.651Z,5.60
2023-01-15T18:17:14.834Z,6.17
2023-01-15T18:19:41.998Z,3.80
2023-01-15T18:22:10.549Z,6.97
2023-01-15T18:24:37.830Z,6.27
2023-01-15T18:27:05.013Z,7.30
2023-01-15T18:29:32.114Z,5.90
2023-01-15T18:31:59.265Z,6.73
2023-01-15T18:34:26.588Z,6.00
2023-01-15T18:36:55.820Z,6.93
2023-01-15T18:39:23.012Z,6.43
2023-01-15T18:41:50.070Z,7.27
2023-01-15T18:44:38.268Z,4.40
2023-01-15T18:47:14.426Z,6.33
2023-01-15T18:49:43.366Z,6.33
2023-01-15T18:52:30.926Z,7.73
2023-01-15T18:54:58.090Z,5.43
2023-01-15T18:57:26.175Z,6.80
2023-01-15T18:59:53.232Z,6.60
2023-01-15T19:02:21.680Z,6.47
2023-01-15T19:04:49.003Z,7.00
2023-01-15T19:07:17.295Z,6.53
2023-01-15T19:09:44.445Z,6.03
2023-01-15T19:12:12.050Z,6.47
2023-01-15T19:14:57.874Z,6.50
2023-01-15T19:17:44.488Z,6.70
2023-01-15T19:20:14.739Z,6.73
2023-01-15T19:23:00.108Z,6.85
2023-01-15T19:25:32.938Z,6.10
2023-01-15T19:28:00.045Z,6.57
2023-01-15T19:30:28.290Z,6.70
2023-01-15T19:32:56.525Z,6.77
2023-01-15T19:35:24.390Z,7.57
2023-01-15T19:37:53.316Z,6.90
2023-01-15T19:40:22.400Z,4.67
2023-01-15T19:43:12.312Z,6.33
2023-01-15T19:46:01.020Z,5.73
2023-01-15T19:48:46.579Z,6.43
2023-01-15T19:51:13.908Z,6.73
2023-01-15T19:53:40.994Z,7.63
2023-01-15T19:56:08.357Z,6.17
2023-01-15T19:58:37.234Z,6.37
2023-01-15T20:01:05.079Z,4.17
2023-01-15T20:03:32.346Z,6.50
2023-01-15T20:06:00.836Z,5.67
2023-01-15T20:08:30.854Z,6.87
2023-01-15T20:10:57.945Z,6.40
2023-01-15T20:13:43.887Z,8.40
2023-01-15T20:16:13.619Z,6.83
2023-01-15T20:18:41.251Z,6.80
2023-01-15T20:21:09.703Z,6.63
2023-01-15T20:23:37.482Z,6.27
2023-01-15T20:26:07.191Z,6.17
2023-01-15T20:28:36.076Z,6.73
2023-01-15T20:31:04.233Z,8.20
2023-01-15T20:33:31.377Z,6.90
2023-01-15T20:36:03.335Z,7.50
2023-01-15T20:38:31.066Z,7.37
2023-01-15T20:41:21.031Z,6.77
2023-01-15T20:44:06.725Z,7.60
2023-01-15T20:46:33.842Z,7.87
2023-01-15T20:49:19.645Z,7.80
2023-01-15T20:51:47.917Z,8.50
2023-01-15T20:54:15.015Z,6.47
2023-01-15T20:56:42.141Z,8.50
2023-01-15T20:59:09.289Z,7.80
2023-01-15T21:01:36.528Z,7.40
2023-01-15T21:04:03.745Z,9.33
2023-01-15T21:06:30.821Z,7.87
2023-01-15T21:08:57.953Z,9.10
2023-01-15T21:11:26.001Z,8.67
2023-01-15T21:13:54.263Z,8.17
2023-01-15T21:16:21.550Z,8.73
2023-01-15T21:18:49.576Z,8.13
2023-01-15T21:21:19.032Z,8.50
2023-01-15T21:23:46.481Z,8.97
2023-01-15T21:26:15.331Z,8.37
2023-01-15T21:28:42.552Z,10.07
2023-01-15T21:31:10.572Z,8.13
2023-01-15T21:33:39.901Z,8.23
2023-01-15T21:36:08.301Z,9.27
2023-01-15T21:38:35.442Z,6.90
2023-01-15T21:41:09.441Z,8.80
2023-01-15T21:43:55.666Z,8.23
2023-01-15T21:46:27.491Z,8.40
2023-01-15T21:48:58.902Z,9.00
2023-01-15T21:51:26.990Z,6.83
2023-01-15T21:53:54.520Z,8.63
2023-01-15T21:56:40.836Z,8.57
2023-01-15T21:59:11.498Z,7.50
2023-01-15T22:01:39.126Z,8.55
2023-01-15T22:04:06.571Z,7.90
2023-01-15T22:06:33.789Z,8.60
2023-01-15T22:09:01.028Z,8.27
2023-01-15T22:11:46.517Z,8.60
2023-01-15T22:14:24.659Z,9.67
2023-01-15T22:16:53.991Z,8.47
2023-01-15T22:19:23.443Z,8.80
2023-01-15T22:21:58.462Z,8.70
2023-01-15T22:24:27.705Z,9.20
2023-01-15T22:26:54.968Z,8.43
2023-01-15T22:29:52.303Z,8.80
2023-01-15T22:32:19.383Z,8.40
2023-01-15T22:34:47.823Z,10.07
2023-01-15T22:37:15.137Z,7.90
2023-01-15T22:39:42.340Z,8.03
2023-01-15T22:42:24.666Z,8.20
2023-01-15T22:44:52.406Z,8.10
2023-01-15T22:47:20.332Z,8.13
2023-01-15T22:49:47.591Z,9.43
2023-01-15T22:52:14.695Z,8.40
2023-01-15T22:54:45.002Z,7.40
2023-01-15T22:57:13.178Z,8.38
2023-01-15T22:59:40.422Z,7.53
2023-01-15T23:02:08.993Z,7.53
2023-01-15T23:04:36.246Z,7.03
2023-01-15T23:07:03.543Z,8.30
2023-01-15T23:09:30.751Z,7.87
2023-01-15T23:11:57.872Z,7.70
2023-01-15T23:14:24.998Z,7.53
2023-01-15T23:16:52.214Z,8.17
2023-01-15T23:19:20.504Z,8.13
2023-01-15T23:21:47.667Z,6.50
2023-01-15T23:24:14.735Z,7.67
2023-01-15T23:26:42.213Z,9.33
2023-01-15T23:29:09.374Z,7.40
2023-01-15T23:31:36.485Z,9.30
2023-01-15T23:34:03.755Z,7.20
2023-01-15T23:36:30.910Z,6.97
2023-01-15T23:38:58.227Z,8.70
2023-01-15T23:41:44.268Z,8.03
2023-01-15T23:44:38.494Z,8.10
2023-01-15T23:47:07.636Z,8.27
2023-01-15T23:49:34.891Z,10.23
2023-01-15T23:52:02.092Z,8.90
2023-01-15T23:54:31.566Z,8.27
2023-01-15T23:57:00.808Z,8.47
2023-01-15T23:59:28.911Z,8.13
